createdAt,value
2023-02-13T00:00:00.981Z,6.20
2023-02-13T00:05:03.464Z,6.87
2023-02-13T00:07:31.136Z,6.43
2023-02-13T00:09:58.893Z,6.53
2023-02-13T00:12:26.706Z,6.37
2023-02-13T00:14:54.735Z,6.43
2023-02-13T00:17:24.555Z,6.87
2023-02-13T00:19:57.506Z,6.93
2023-02-13T00:22:25.245Z,6.40
2023-02-13T00:24:54.129Z,6.50
2023-02-13T00:27:21.774Z,6.33
2023-02-13T00:29:50.578Z,6.03
2023-02-13T00:32:18.275Z,6.10
2023-02-13T00:34:48.516Z,5.80
2023-02-13T00:37:16.188Z,7.07
2023-02-13T00:39:43.976Z,6.67
2023-02-13T00:42:11.629Z,6.93
2023-02-13T00:44:39.649Z,7.27
2023-02-13T00:47:07.348Z,7.20
2023-02-13T00:49:35.155Z,6.90
2023-02-13T00:52:04.359Z,7.20
2023-02-13T00:54:32.255Z,8.10
2023-02-13T00:56:59.916Z,6.57
2023-02-13T00:59:27.691Z,7.07
2023-02-13T01:01:55.434Z,7.23
2023-02-13T01:04:23.104Z,7.17
2023-02-13T01:06:50.974Z,6.23
2023-02-13T01:09:19.949Z,7.10
2023-02-13T01:11:47.762Z,7.70
2023-02-13T01:14:15.392Z,7.33
2023-02-13T01:16:43.481Z,6.97
2023-02-13T01:19:11.166Z,7.57
2023-02-13T01:21:39.125Z,6.93
2023-02-13T01:24:07.305Z,7.03
2023-02-13T01:26:36.559Z,7.50
2023-02-13T01:29:04.317Z,7.40
2023-02-13T01:31:32.380Z,7.20
2023-02-13T01:34:00.324Z,8.07
2023-02-13T01:36:28.224Z,9.00
2023-02-13T01:38:56.550Z,7.00
2023-02-13T01:41:24.537Z,7.60
2023-02-13T01:43:54.666Z,7.30
2023-02-13T01:46:30.308Z,6.97
2023-02-13T01:49:00.324Z,6.73
2023-02-13T01:51:30.244Z,6.43
2023-02-13T01:56:55.160Z,6.83
2023-02-13T01:59:25.946Z,6.57
2023-02-13T02:01:53.714Z,5.43
2023-02-13T02:04:23.448Z,5.53
2023-02-13T02:06:53.272Z,5.10
2023-02-13T02:09:22.328Z,4.63
2023-02-13T02:11:52.727Z,4.77
2023-02-13T02:14:21.298Z,5.23
2023-02-13T02:16:50.674Z,4.10
2023-02-13T02:19:22.371Z,3.90
2023-02-13T02:22:26.695Z,4.30
2023-02-13T02:25:18.426Z,3.13
2023-02-13T02:28:12.380Z,4.03
2023-02-13T02:31:01.311Z,4.30
2023-02-13T02:33:34.182Z,3.97
2023-02-13T02:36:10.437Z,4.47
2023-02-13T02:38:45.526Z,4.03
2023-02-13T02:41:39.926Z,4.20
2023-02-13T02:44:13.982Z,3.90
2023-02-13T02:47:09.077Z,4.10
2023-02-13T02:49:56.630Z,4.23
2023-02-13T02:52:27.190Z,4.33
2023-02-13T02:55:07.678Z,4.60
2023-02-13T02:57:51.164Z,4.50
2023-02-13T03:00:36.651Z,4.40
2023-02-13T03:03:22.077Z,4.73
2023-02-13T03:06:08.534Z,4.60
2023-02-13T03:08:54.024Z,4.90
2023-02-13T03:11:40.010Z,5.20
2023-02-13T03:14:08.431Z,4.70
2023-02-13T03:17:08.649Z,5.27
2023-02-13T03:20:01.892Z,5.13
2023-02-13T03:22:40.283Z,4.90
2023-02-13T03:25:35.789Z,5.50
2023-02-13T03:31:34.426Z,5.60
2023-02-13T03:34:03.819Z,5.20
2023-02-13T03:36:53.526Z,5.47
2023-02-13T03:39:37.221Z,6.17
2023-02-13T03:42:06.206Z,5.90
2023-02-13T03:44:38.988Z,5.90
2023-02-13T03:47:07.479Z,5.83
2023-02-13T03:50:06.751Z,5.93
2023-02-13T03:52:36.802Z,7.07
2023-02-13T03:55:27.390Z,6.20
2023-02-13T03:58:20.935Z,6.60
2023-02-13T04:00:51.370Z,5.20
2023-02-13T04:03:22.393Z,6.23
2023-02-13T04:05:51.163Z,6.53
2023-02-13T04:08:18.886Z,6.83
2023-02-13T04:10:52.167Z,6.20
2023-02-13T04:13:21.546Z,6.63
2023-02-13T04:15:51.265Z,6.47
2023-02-13T04:18:22.424Z,6.70
2023-02-13T04:20:50.277Z,6.40
2023-02-13T04:23:17.932Z,6.03
2023-02-13T04:25:47.301Z,6.67
2023-02-13T04:28:16.336Z,5.63
2023-02-13T04:30:44.321Z,6.47
2023-02-13T04:33:12.056Z,7.00
2023-02-13T04:35:39.894Z,6.60
2023-02-13T04:38:07.717Z,7.00
2023-02-13T04:40:35.548Z,7.00
2023-02-13T04:43:03.265Z,7.40
2023-02-13T04:45:32.688Z,7.20
2023-02-13T04:48:00.794Z,6.53
2023-02-13T04:50:28.656Z,6.93
2023-02-13T04:52:56.577Z,7.13
2023-02-13T04:55:24.517Z,7.60
2023-02-13T04:57:53.213Z,7.87
2023-02-13T05:00:22.435Z,7.37
2023-02-13T05:02:51.666Z,7.27
2023-02-13T05:05:19.356Z,7.23
2023-02-13T05:07:47.264Z,7.83
2023-02-13T05:10:14.886Z,6.53
2023-02-13T05:12:42.930Z,7.40
2023-02-13T05:15:10.998Z,7.57
2023-02-13T05:17:38.768Z,7.77
2023-02-13T05:20:09.192Z,8.27
2023-02-13T05:22:54.391Z,8.20
2023-02-13T05:25:22.266Z,7.60
2023-02-13T05:27:49.918Z,7.43
2023-02-13T05:30:17.874Z,7.50
2023-02-13T05:32:45.892Z,8.53
2023-02-13T05:35:15.126Z,7.63
2023-02-13T05:37:42.837Z,7.43
2023-02-13T05:40:13.344Z,7.23
2023-02-13T05:42:41.304Z,7.53
2023-02-13T05:45:11.371Z,7.93
2023-02-13T05:47:39.100Z,8.27
2023-02-13T05:50:09.207Z,8.10
2023-02-13T05:52:38.257Z,7.73
2023-02-13T05:55:06.803Z,8.53
2023-02-13T05:57:34.887Z,9.03
2023-02-13T06:00:03.061Z,7.80
2023-02-13T06:05:05.173Z,8.73
2023-02-13T06:07:32.821Z,8.20
2023-02-13T06:10:02.012Z,7.77
2023-02-13T06:12:29.677Z,8.10
2023-02-13T06:14:57.553Z,8.90
2023-02-13T06:17:25.244Z,8.00
2023-02-13T06:19:53.099Z,8.67
2023-02-13T06:22:20.838Z,9.27
2023-02-13T06:24:48.673Z,8.90
2023-02-13T06:27:17.667Z,9.07
2023-02-13T06:29:45.442Z,8.40
2023-02-13T06:32:13.181Z,9.23
2023-02-13T06:34:40.976Z,9.40
2023-02-13T06:37:08.650Z,9.00
2023-02-13T06:39:36.483Z,8.83
2023-02-13T06:42:04.202Z,8.67
2023-02-13T06:44:33.448Z,8.30
2023-02-13T06:47:01.248Z,9.70
2023-02-13T06:49:29.208Z,10.07
2023-02-13T06:51:56.871Z,9.70
2023-02-13T06:54:37.128Z,9.83
2023-02-13T06:57:12.266Z,11.00
2023-02-13T06:59:41.475Z,9.50
2023-02-13T07:02:10.539Z,8.97
2023-02-13T07:04:38.267Z,8.87
2023-02-13T07:07:06.207Z,9.23
2023-02-13T07:09:33.922Z,9.43
2023-02-13T07:12:04.015Z,9.00
2023-02-13T07:14:31.720Z,10.10
2023-02-13T07:17:03.366Z,9.17
2023-02-13T07:19:31.021Z,9.90
2023-02-13T07:21:58.894Z,8.83
2023-02-13T07:24:26.622Z,9.63
2023-02-13T07:26:54.427Z,9.20
2023-02-13T07:29:22.073Z,9.23
2023-02-13T07:31:49.904Z,10.40
2023-02-13T07:34:18.988Z,9.57
2023-02-13T07:36:46.835Z,10.17
2023-02-13T07:39:14.493Z,9.67
2023-02-13T07:41:42.361Z,9.77
2023-02-13T07:44:10.130Z,8.40
2023-02-13T07:46:38.076Z,8.43
2023-02-13T07:49:05.761Z,8.93
2023-02-13T07:51:35.115Z,8.13
2023-02-13T07:54:03.019Z,8.40
2023-02-13T07:56:30.702Z,8.03
2023-02-13T07:58:58.543Z,8.13
2023-02-13T08:01:26.853Z,9.03
2023-02-13T08:03:54.813Z,9.03
2023-02-13T08:06:22.532Z,7.80
2023-02-13T08:09:12.581Z,8.50
2023-02-13T08:11:54.492Z,8.47
2023-02-13T08:14:22.293Z,8.60
2023-02-13T08:16:51.566Z,9.77
2023-02-13T08:19:19.725Z,8.90
2023-02-13T08:21:47.438Z,8.17
2023-02-13T08:24:16.496Z,8.57
2023-02-13T08:26:44.480Z,8.90
2023-02-13T08:29:12.340Z,8.18
2023-02-13T08:31:40.167Z,8.60
2023-02-13T08:34:07.862Z,8.15
2023-02-13T08:36:35.691Z,8.88
2023-02-13T08:39:03.352Z,8.52
2023-02-13T08:41:32.625Z,7.68
2023-02-13T08:44:00.281Z,8.45
2023-02-13T08:46:28.212Z,8.10
2023-02-13T08:48:55.969Z,8.52
2023-02-13T08:51:23.746Z,8.75
2023-02-13T08:56:46.600Z,7.70
2023-02-13T08:59:14.321Z,8.15
2023-02-13T09:01:42.197Z,8.07
2023-02-13T09:04:10.142Z,7.60
2023-02-13T09:06:38.102Z,7.07
2023-02-13T09:09:05.972Z,7.30
2023-02-13T09:11:35.133Z,7.25
2023-02-13T09:14:02.827Z,6.80
2023-02-13T09:16:30.698Z,7.13
2023-02-13T09:18:58.390Z,7.20
2023-02-13T09:21:26.140Z,6.75
2023-02-13T09:23:55.234Z,7.00
2023-02-13T09:26:23.345Z,6.78
2023-02-13T09:28:52.534Z,7.10
2023-02-13T09:31:21.611Z,7.30
2023-02-13T09:33:49.914Z,7.00
2023-02-13T09:36:19.283Z,6.53
2023-02-13T09:38:47.464Z,5.63
2023-02-13T09:41:17.360Z,5.82
2023-02-13T09:43:46.223Z,6.53
2023-02-13T09:46:16.862Z,5.78
2023-02-13T09:48:45.488Z,5.72
2023-02-13T09:51:15.136Z,5.75
2023-02-13T09:53:43.520Z,5.97
2023-02-13T09:56:14.490Z,5.75
2023-02-13T09:58:45.777Z,5.40
2023-02-13T10:01:20.219Z,5.70
2023-02-13T10:03:49.369Z,5.63
2023-02-13T10:06:20.887Z,6.18
2023-02-13T10:08:59.393Z,4.95
2023-02-13T10:12:08.577Z,5.10
2023-02-13T10:14:39.444Z,5.28
2023-02-13T10:17:10.430Z,5.28
2023-02-13T10:19:41.234Z,4.80
2023-02-13T10:22:15.266Z,4.75
2023-02-13T10:24:45.047Z,4.65
2023-02-13T10:27:21.671Z,4.53
2023-02-13T10:30:09.580Z,4.75
2023-02-13T10:32:43.247Z,4.43
2023-02-13T10:35:19.324Z,4.43
2023-02-13T10:37:51.209Z,4.50
2023-02-13T10:40:19.461Z,5.00
2023-02-13T10:42:48.031Z,4.38
2023-02-13T10:45:24.774Z,4.60
2023-02-13T10:47:59.292Z,4.30
2023-02-13T10:50:29.374Z,4.72
2023-02-13T10:53:03.444Z,4.88
2023-02-13T10:56:01.432Z,4.45
2023-02-13T10:58:33.685Z,5.03
2023-02-13T11:01:04.319Z,4.13
2023-02-13T11:03:33.554Z,4.25
2023-02-13T11:06:01.396Z,4.53
2023-02-13T11:08:32.145Z,4.40
2023-02-13T11:10:59.897Z,4.05
2023-02-13T11:13:28.337Z,3.78
2023-02-13T11:16:01.766Z,4.18
2023-02-13T11:18:30.892Z,3.70
2023-02-13T11:21:07.886Z,3.60
2023-02-13T11:23:43.021Z,3.63
2023-02-13T11:26:12.342Z,4.38
2023-02-13T11:28:41.042Z,3.70
2023-02-13T11:31:14.301Z,4.05
2023-02-13T11:33:42.216Z,3.90
2023-02-13T11:36:12.990Z,4.00
2023-02-13T11:38:40.692Z,4.20
2023-02-13T11:41:21.435Z,3.70
2023-02-13T11:43:50.509Z,3.80
2023-02-13T11:46:20.584Z,3.63
2023-02-13T11:49:01.549Z,3.50
2023-02-13T11:51:43.616Z,3.50
2023-02-13T11:54:30.216Z,3.42
2023-02-13T11:57:04.879Z,3.63
2023-02-13T11:59:34.726Z,3.25
2023-02-13T12:02:14.746Z,3.30
2023-02-13T12:07:23.549Z,2.88
2023-02-13T12:09:54.373Z,3.17
2023-02-13T12:12:26.825Z,3.40
2023-02-13T12:14:54.642Z,3.58
2023-02-13T12:17:31.273Z,3.13
2023-02-13T12:19:59.918Z,3.22
2023-02-13T12:22:43.506Z,3.28
2023-02-13T12:25:27.510Z,3.28
2023-02-13T12:28:05.008Z,2.67
2023-02-13T12:30:57.603Z,3.08
2023-02-13T12:33:37.983Z,2.72
2023-02-13T12:36:08.571Z,3.40
2023-02-13T12:38:50.577Z,2.90
2023-02-13T12:41:20.117Z,3.25
2023-02-13T12:44:06.624Z,3.20
2023-02-13T12:46:39.765Z,2.78
2023-02-13T12:49:18.094Z,2.20
2023-02-13T12:51:49.780Z,2.35
2023-02-13T12:54:29.977Z,2.30
2023-02-13T12:57:04.399Z,1.95
2023-02-13T12:59:37.429Z,2.05
2023-02-13T13:02:37.523Z,2.55
2023-02-13T13:05:15.396Z,4.22
2023-02-13T13:07:51.883Z,2.30
2023-02-13T13:10:34.023Z,2.30
2023-02-13T13:13:06.071Z,2.30
2023-02-13T13:15:36.223Z,2.17
2023-02-13T13:18:09.540Z,2.28
2023-02-13T13:20:59.026Z,2.38
2023-02-13T13:23:30.829Z,1.88
2023-02-13T13:26:07.372Z,2.20
2023-02-13T13:31:06.773Z,1.60
2023-02-13T13:33:34.885Z,1.77
2023-02-13T13:36:05.044Z,2.40
2023-02-13T13:38:43.186Z,1.90
2023-02-13T13:41:16.464Z,1.70
2023-02-13T13:43:54.307Z,1.40
2023-02-13T13:46:22.973Z,1.73
2023-02-13T13:49:01.821Z,1.48
2023-02-13T13:54:25.373Z,1.30
2023-02-13T13:57:12.503Z,1.48
2023-02-13T14:00:25.989Z,1.02
2023-02-13T14:03:22.362Z,1.27
2023-02-13T14:06:11.510Z,1.42
2023-02-13T14:09:07.086Z,1.20
2023-02-13T14:11:36.735Z,0.95
2023-02-13T14:14:55.197Z,1.10
2023-02-13T14:18:01.293Z,1.25
2023-02-13T14:20:37.133Z,1.10
2023-02-13T14:23:09.564Z,0.90
2023-02-13T14:25:38.519Z,1.50
2023-02-13T14:28:12.050Z,3.23
2023-02-13T14:30:41.341Z,2.10
2023-02-13T14:33:23.826Z,1.07
2023-02-13T14:36:01.878Z,1.00
2023-02-13T14:38:29.694Z,1.20
2023-02-13T14:40:57.866Z,1.10
2023-02-13T14:43:45.644Z,1.23
2023-02-13T14:46:27.543Z,1.37
2023-02-13T14:48:58.500Z,1.40
2023-02-13T14:51:30.616Z,1.40
2023-02-13T14:54:01.209Z,1.10
2023-02-13T14:56:30.557Z,0.90
2023-02-13T14:59:02.568Z,1.10
2023-02-13T15:01:35.865Z,1.07
2023-02-13T15:04:08.471Z,1.00
2023-02-13T15:06:40.567Z,1.40
2023-02-13T15:09:28.621Z,0.80
2023-02-13T15:11:58.641Z,0.80
2023-02-13T15:14:31.507Z,0.77
2023-02-13T15:17:02.962Z,0.73
2023-02-13T15:19:30.885Z,0.83
2023-02-13T15:22:09.358Z,0.97
2023-02-13T15:24:41.636Z,0.60
2023-02-13T15:27:09.318Z,0.80
2023-02-13T15:29:49.173Z,0.93
2023-02-13T15:32:22.003Z,0.83
2023-02-13T15:34:49.893Z,0.90
2023-02-13T15:37:22.374Z,0.60
2023-02-13T15:39:50.190Z,0.90
2023-02-13T15:42:18.044Z,1.10
2023-02-13T15:44:47.754Z,0.90
2023-02-13T15:47:27.491Z,0.70
2023-02-13T15:49:56.544Z,0.80
2023-02-13T15:52:27.327Z,0.90
2023-02-13T15:54:55.947Z,0.90
2023-02-13T15:57:24.340Z,0.90
2023-02-13T15:59:52.299Z,1.33
2023-02-13T16:02:22.061Z,1.00
2023-02-13T16:04:51.553Z,0.83
2023-02-13T16:07:21.226Z,1.20
2023-02-13T16:09:49.089Z,1.07
2023-02-13T16:12:20.611Z,1.43
2023-02-13T16:14:52.299Z,1.07
2023-02-13T16:17:24.096Z,1.60
2023-02-13T16:19:57.269Z,1.20
2023-02-13T16:22:34.746Z,1.00
2023-02-13T16:25:07.639Z,1.00
2023-02-13T16:27:35.403Z,1.30
2023-02-13T16:30:05.034Z,1.20
2023-02-13T16:32:34.058Z,1.10
2023-02-13T16:35:18.011Z,1.10
2023-02-13T16:37:52.012Z,1.87
2023-02-13T16:40:40.477Z,1.50
2023-02-13T16:43:44.300Z,1.30
2023-02-13T16:46:37.132Z,1.70
2023-02-13T16:49:18.936Z,2.17
2023-02-13T16:51:48.520Z,1.97
2023-02-13T16:54:34.367Z,1.73
2023-02-13T16:57:03.647Z,2.10
2023-02-13T16:59:43.266Z,1.80
2023-02-13T17:02:20.758Z,2.00
2023-02-13T17:04:51.236Z,1.63
2023-02-13T17:07:21.142Z,2.13
2023-02-13T17:09:55.332Z,1.70
2023-02-13T17:12:23.029Z,2.20
2023-02-13T17:14:51.107Z,2.23
2023-02-13T17:17:19.759Z,2.43
2023-02-13T17:19:47.586Z,2.70
2023-02-13T17:22:34.061Z,2.73
2023-02-13T17:25:04.038Z,2.80
2023-02-13T17:27:31.753Z,2.70
2023-02-13T17:29:59.970Z,2.37
2023-02-13T17:32:28.448Z,3.27
2023-02-13T17:34:56.216Z,2.30
2023-02-13T17:37:25.439Z,2.10
2023-02-13T17:39:53.601Z,2.57
2023-02-13T17:42:25.265Z,2.50
2023-02-13T17:44:53.226Z,2.30
2023-02-13T17:47:20.991Z,3.03
2023-02-13T17:49:49.132Z,3.00
2023-02-13T17:52:18.186Z,2.67
2023-02-13T17:54:46.451Z,3.00
2023-02-13T17:57:14.920Z,3.20
2023-02-13T17:59:44.528Z,3.03
2023-02-13T18:02:14.389Z,3.30
2023-02-13T18:07:11.016Z,3.37
2023-02-13T18:09:39.850Z,3.60
2023-02-13T18:12:07.880Z,3.37
2023-02-13T18:14:35.860Z,3.43
2023-02-13T18:17:04.902Z,3.57
2023-02-13T18:19:32.608Z,4.00
2023-02-13T18:22:00.436Z,4.87
2023-02-13T18:24:31.348Z,3.67
2023-02-13T18:26:59.036Z,4.50
2023-02-13T18:29:26.812Z,3.83
2023-02-13T18:31:54.763Z,3.90
2023-02-13T18:34:24.394Z,4.87
2023-02-13T18:36:52.231Z,4.67
2023-02-13T18:39:19.984Z,13.70
2023-02-13T18:41:47.705Z,5.50
2023-02-13T18:44:27.036Z,3.97
2023-02-13T18:46:56.234Z,4.60
2023-02-13T18:49:25.336Z,4.70
2023-02-13T18:51:53.149Z,4.83
2023-02-13T18:54:21.286Z,4.97
2023-02-13T18:56:48.988Z,5.60
2023-02-13T18:59:18.452Z,5.63
2023-02-13T19:01:46.736Z,5.10
2023-02-13T19:04:14.498Z,5.13
2023-02-13T19:06:43.970Z,5.20
2023-02-13T19:09:11.788Z,7.40
2023-02-13T19:11:39.490Z,5.57
2023-02-13T19:14:07.470Z,8.00
2023-02-13T19:16:35.752Z,5.87
2023-02-13T19:19:04.540Z,4.77
2023-02-13T19:21:32.868Z,4.70
2023-02-13T19:24:02.580Z,5.67
2023-02-13T19:26:30.364Z,5.23
2023-02-13T19:28:58.606Z,5.33
2023-02-13T19:31:27.665Z,5.70
2023-02-13T19:33:55.744Z,5.87
2023-02-13T19:36:24.315Z,6.63
2023-02-13T19:38:54.733Z,6.73
2023-02-13T19:41:23.931Z,6.97
2023-02-13T19:43:53.389Z,6.57
2023-02-13T19:46:21.890Z,6.70
2023-02-13T19:48:49.608Z,6.93
2023-02-13T19:51:18.065Z,6.40
2023-02-13T19:53:45.912Z,7.03
2023-02-13T19:56:13.742Z,6.67
2023-02-13T19:58:43.293Z,8.60
2023-02-13T20:01:12.084Z,7.17
2023-02-13T20:03:39.788Z,6.83
2023-02-13T20:06:08.925Z,5.87
2023-02-13T20:08:36.701Z,10.23
2023-02-13T20:11:04.465Z,7.97
2023-02-13T20:13:32.446Z,6.70
2023-02-13T20:16:02.935Z,7.10
2023-02-13T20:18:30.668Z,7.50
2023-02-13T20:20:59.661Z,6.33
2023-02-13T20:23:27.740Z,7.20
2023-02-13T20:25:55.499Z,5.87
2023-02-13T20:28:23.437Z,6.60
2023-02-13T20:30:51.326Z,6.63
2023-02-13T20:33:20.714Z,7.50
2023-02-13T20:35:48.537Z,7.20
2023-02-13T20:38:16.871Z,7.10
2023-02-13T20:40:44.567Z,6.53
2023-02-13T20:43:12.403Z,7.23
2023-02-13T20:45:40.263Z,7.10
2023-02-13T20:48:08.103Z,7.43
2023-02-13T20:50:37.270Z,6.97
2023-02-13T20:53:05.053Z,7.90
2023-02-13T20:55:32.692Z,7.73
2023-02-13T20:58:00.609Z,8.03
2023-02-13T21:00:28.329Z,7.10
2023-02-13T21:02:56.058Z,7.70
2023-02-13T21:05:23.909Z,7.70
2023-02-13T21:07:53.104Z,7.87
2023-02-13T21:10:20.760Z,7.70
2023-02-13T21:12:48.474Z,7.77
2023-02-13T21:15:16.318Z,8.23
2023-02-13T21:17:44.118Z,8.63
2023-02-13T21:20:12.492Z,7.00
2023-02-13T21:22:40.276Z,6.87
2023-02-13T21:25:09.510Z,7.37
2023-02-13T21:27:37.219Z,7.43
2023-02-13T21:30:05.619Z,7.60
2023-02-13T21:32:33.288Z,6.93
2023-02-13T21:35:01.140Z,7.40
2023-02-13T21:37:30.274Z,7.53
2023-02-13T21:39:58.121Z,7.97
2023-02-13T21:42:27.202Z,8.10
2023-02-13T21:44:55.048Z,9.10
2023-02-13T21:47:23.142Z,8.47
2023-02-13T21:49:50.943Z,8.93
2023-02-13T21:52:18.607Z,8.67
2023-02-13T21:54:46.418Z,8.00
2023-02-13T21:57:14.129Z,8.10
2023-02-13T21:59:43.293Z,7.60
2023-02-13T22:02:11.161Z,8.30
2023-02-13T22:04:39.390Z,7.73
2023-02-13T22:07:07.670Z,7.77
2023-02-13T22:09:35.432Z,8.17
2023-02-13T22:12:04.106Z,8.40
2023-02-13T22:14:31.932Z,8.30
2023-02-13T22:17:00.978Z,7.97
2023-02-13T22:19:28.730Z,7.30
2023-02-13T22:21:56.687Z,7.03
2023-02-13T22:24:24.799Z,7.63
2023-02-13T22:26:52.622Z,7.70
2023-02-13T22:29:22.919Z,7.83
2023-02-13T22:31:50.871Z,7.87
2023-02-13T22:34:20.375Z,8.70
2023-02-13T22:36:48.234Z,7.43
2023-02-13T22:39:15.959Z,7.57
2023-02-13T22:41:45.699Z,7.43
2023-02-13T22:44:13.467Z,7.63
2023-02-13T22:46:41.425Z,7.70
2023-02-13T22:49:09.112Z,9.20
2023-02-13T22:51:38.343Z,8.20
2023-02-13T22:54:06.975Z,8.00
2023-02-13T22:56:34.860Z,7.97
2023-02-13T22:59:02.765Z,8.40
2023-02-13T23:01:30.637Z,7.90
2023-02-13T23:03:58.466Z,7.40
2023-02-13T23:06:26.840Z,7.70
2023-02-13T23:08:57.139Z,7.80
2023-02-13T23:11:44.225Z,7.17
2023-02-13T23:14:12.026Z,7.60
2023-02-13T23:16:57.274Z,7.83
2023-02-13T23:19:27.301Z,7.80
2023-02-13T23:21:55.182Z,6.93
2023-02-13T23:24:24.216Z,7.30
2023-02-13T23:26:52.077Z,8.10
2023-02-13T23:29:19.724Z,7.43
2023-02-13T23:31:48.015Z,6.80
2023-02-13T23:34:15.710Z,7.70
2023-02-13T23:36:43.487Z,7.87
2023-02-13T23:39:11.267Z,7.00
2023-02-13T23:41:40.479Z,8.03
2023-02-13T23:44:08.148Z,7.27
2023-02-13T23:46:36.027Z,7.70
2023-02-13T23:49:05.558Z,7.33
2023-02-13T23:51:34.995Z,8.10
2023-02-13T23:54:03.183Z,7.23
2023-02-13T23:56:31.088Z,7.50
2023-02-13T23:59:00.117Z,7.17
